sensor_id;sensor_type;location;lat;lon;timestamp;pressure;altitude;pressure_sealevel;temperature;humidity
60337;BME280;46978;50.288;28.624;2023-02-19T00:00:45;97956.29;;;1.90;84.37
60337;BME280;46978;50.288;28.624;2023-02-19T00:01:47;97952.05;;;1.91;85.05
60337;BME280;46978;50.288;28.624;2023-02-19T00:02:48;97953.71;;;1.93;84.99
60337;BME280;46978;50.288;28.624;2023-02-19T00:03:52;97953.71;;;1.93;85.04
60337;BME280;46978;50.288;28.624;2023-02-19T00:04:54;97955.43;;;1.93;85.03
60337;BME280;46978;50.288;28.624;2023-02-19T00:05:56;97957.98;;;1.93;85.43
60337;BME280;46978;50.288;28.624;2023-02-19T00:06:58;97958.83;;;1.93;85.59
60337;BME280;46978;50.288;28.624;2023-02-19T00:07:59;97962.25;;;1.94;86.00
60337;BME280;46978;50.288;28.624;2023-02-19T00:09:01;97966.49;;;1.95;86.31
60337;BME280;46978;50.288;28.624;2023-02-19T00:10:03;97963.09;;;1.94;86.31
60337;BME280;46978;50.288;28.624;2023-02-19T00:11:10;97956.27;;;1.93;86.61
60337;BME280;46978;50.288;28.624;2023-02-19T00:12:10;97957.14;;;1.94;86.51
60337;BME280;46978;50.288;28.624;2023-02-19T00:13:12;97957.98;;;1.93;86.64
60337;BME280;46978;50.288;28.624;2023-02-19T00:14:16;97962.27;;;1.92;86.57
60337;BME280;46978;50.288;28.624;2023-02-19T00:15:18;97968.25;;;1.88;87.51
60337;BME280;46978;50.288;28.624;2023-02-19T00:16:24;97968.25;;;1.88;87.51
60337;BME280;46978;50.288;28.624;2023-02-19T00:17:26;97968.25;;;1.87;86.99
60337;BME280;46978;50.288;28.624;2023-02-19T00:18:28;97958.90;;;1.81;87.78
60337;BME280;46978;50.288;28.624;2023-02-19T00:19:30;97958.90;;;1.81;87.78
60337;BME280;46978;50.288;28.624;2023-02-19T00:20:31;97958.91;;;1.79;88.40
60337;BME280;46978;50.288;28.624;2023-02-19T00:21:33;97962.34;;;1.78;88.80
60337;BME280;46978;50.288;28.624;2023-02-19T00:22:35;97957.25;;;1.75;88.93
60337;BME280;46978;50.288;28.624;2023-02-19T00:23:37;97958.10;;;1.73;88.89
60337;BME280;46978;50.288;28.624;2023-02-19T00:24:38;97956.41;;;1.70;88.55
60337;BME280;46978;50.288;28.624;2023-02-19T00:25:40;97957.30;;;1.66;88.80
60337;BME280;46978;50.288;28.624;2023-02-19T00:26:43;97962.41;;;1.65;88.86
60337;BME280;46978;50.288;28.624;2023-02-19T00:27:45;97959.86;;;1.65;89.18
60337;BME280;46978;50.288;28.624;2023-02-19T00:28:47;97959.00;;;1.63;89.48
60337;BME280;46978;50.288;28.624;2023-02-19T00:29:49;97958.16;;;1.62;90.50
60337;BME280;46978;50.288;28.624;2023-02-19T00:30:51;97964.98;;;1.61;90.19
60337;BME280;46978;50.288;28.624;2023-02-19T00:31:53;97967.55;;;1.61;90.25
60337;BME280;46978;50.288;28.624;2023-02-19T00:32:54;97967.55;;;1.61;90.14
60337;BME280;46978;50.288;28.624;2023-02-19T00:33:59;97967.55;;;1.61;90.04
60337;BME280;46978;50.288;28.624;2023-02-19T00:35:01;97969.22;;;1.63;90.49
60337;BME280;46978;50.288;28.624;2023-02-19T00:36:04;97964.98;;;1.63;90.63
60337;BME280;46978;50.288;28.624;2023-02-19T00:37:06;97969.22;;;1.64;90.59
60337;BME280;46978;50.288;28.624;2023-02-19T00:38:07;97976.89;;;1.64;90.42
60337;BME280;46978;50.288;28.624;2023-02-19T00:39:12;97970.94;;;1.64;90.40
60337;BME280;46978;50.288;28.624;2023-02-19T00:40:16;97973.49;;;1.64;90.56
60337;BME280;46978;50.288;28.624;2023-02-19T00:41:19;97964.10;;;1.64;90.69
60337;BME280;46978;50.288;28.624;2023-02-19T00:42:21;97965.81;;;1.65;90.61
60337;BME280;46978;50.288;28.624;2023-02-19T00:43:22;97970.92;;;1.65;90.78
60337;BME280;46978;50.288;28.624;2023-02-19T00:44:24;97978.59;;;1.67;91.08
60337;BME280;46978;50.288;28.624;2023-02-19T00:45:26;97972.64;;;1.66;91.29
60337;BME280;46978;50.288;28.624;2023-02-19T00:46:35;97980.31;;;1.66;91.42
60337;BME280;46978;50.288;28.624;2023-02-19T00:47:37;97977.75;;;1.66;91.95
60337;BME280;46978;50.288;28.624;2023-02-19T00:48:39;97977.74;;;1.68;91.70
60337;BME280;46978;50.288;28.624;2023-02-19T00:49:41;97975.19;;;1.68;91.78
60337;BME280;46978;50.288;28.624;2023-02-19T00:50:43;97976.03;;;1.68;91.44
60337;BME280;46978;50.288;28.624;2023-02-19T00:51:45;97976.88;;;1.67;91.41
60337;BME280;46978;50.288;28.624;2023-02-19T00:52:47;97972.64;;;1.66;91.54
60337;BME280;46978;50.288;28.624;2023-02-19T00:53:49;97981.98;;;1.67;91.38
60337;BME280;46978;50.288;28.624;2023-02-19T00:54:51;97992.22;;;1.66;91.61
60337;BME280;46978;50.288;28.624;2023-02-19T00:55:52;97991.38;;;1.65;91.97
60337;BME280;46978;50.288;28.624;2023-02-19T00:56:56;97989.67;;;1.64;91.88
60337;BME280;46978;50.288;28.624;2023-02-19T00:57:57;97983.72;;;1.64;92.29
60337;BME280;46978;50.288;28.624;2023-02-19T00:58:59;97985.44;;;1.63;92.27
60337;BME280;46978;50.288;28.624;2023-02-19T01:00:01;97987.13;;;1.63;92.14
60337;BME280;46978;50.288;28.624;2023-02-19T01:01:04;97999.06;;;1.64;92.41
60337;BME280;46978;50.288;28.624;2023-02-19T01:02:06;97992.23;;;1.63;92.55
60337;BME280;46978;50.288;28.624;2023-02-19T01:03:08;97993.11;;;1.63;92.52
60337;BME280;46978;50.288;28.624;2023-02-19T01:04:09;97984.57;;;1.61;92.75
60337;BME280;46978;50.288;28.624;2023-02-19T01:05:11;97991.41;;;1.60;92.60
60337;BME280;46978;50.288;28.624;2023-02-19T01:06:15;97987.13;;;1.59;92.53
60337;BME280;46978;50.288;28.624;2023-02-19T01:07:18;97989.69;;;1.59;92.67
60337;BME280;46978;50.288;28.624;2023-02-19T01:08:20;97988.02;;;1.58;92.49
60337;BME280;46978;50.288;28.624;2023-02-19T01:09:22;97994.80;;;1.59;92.80
60337;BME280;46978;50.288;28.624;2023-02-19T01:10:24;97991.41;;;1.57;92.88
60337;BME280;46978;50.288;28.624;2023-02-19T01:11:26;97991.41;;;1.57;93.05
60337;BME280;46978;50.288;28.624;2023-02-19T01:12:27;97996.53;;;1.57;93.30
60337;BME280;46978;50.288;28.624;2023-02-19T01:13:29;97993.13;;;1.57;93.41
60337;BME280;46978;50.288;28.624;2023-02-19T01:14:31;97997.37;;;1.58;93.38
60337;BME280;46978;50.288;28.624;2023-02-19T01:15:33;98008.47;;;1.58;93.45
60337;BME280;46978;50.288;28.624;2023-02-19T01:16:35;98005.03;;;1.59;93.71
60337;BME280;46978;50.288;28.624;2023-02-19T01:17:37;97998.23;;;1.58;93.57
60337;BME280;46978;50.288;28.624;2023-02-19T01:18:39;98001.64;;;1.59;93.38
60337;BME280;46978;50.288;28.624;2023-02-19T01:19:41;98011.02;;;1.58;93.43
60337;BME280;46978;50.288;28.624;2023-02-19T01:20:44;98016.14;;;1.58;93.56
60337;BME280;46978;50.288;28.624;2023-02-19T01:21:46;98009.31;;;1.57;93.86
60337;BME280;46978;50.288;28.624;2023-02-19T01:22:47;98011.03;;;1.57;93.91
60337;BME280;46978;50.288;28.624;2023-02-19T01:23:50;98006.75;;;1.57;93.91
60337;BME280;46978;50.288;28.624;2023-02-19T01:24:52;98003.35;;;1.58;94.09
60337;BME280;46978;50.288;28.624;2023-02-19T01:25:53;98021.25;;;1.58;94.18
60337;BME280;46978;50.288;28.624;2023-02-19T01:26:55;98018.69;;;1.58;94.08
60337;BME280;46978;50.288;28.624;2023-02-19T01:27:57;98019.53;;;1.57;93.91
60337;BME280;46978;50.288;28.624;2023-02-19T01:28:59;98012.72;;;1.56;93.82
60337;BME280;46978;50.288;28.624;2023-02-19T01:30:01;98020.38;;;1.56;94.24
60337;BME280;46978;50.288;28.624;2023-02-19T01:31:04;98001.69;;;1.47;94.18
60337;BME280;46978;50.288;28.624;2023-02-19T01:32:06;98011.88;;;1.53;94.35
60337;BME280;46978;50.288;28.624;2023-02-19T01:33:09;98005.06;;;1.50;94.55
60337;BME280;46978;50.288;28.624;2023-02-19T01:34:10;98004.23;;;1.48;94.49
60337;BME280;46978;50.288;28.624;2023-02-19T01:35:12;97999.13;;;1.45;94.81
60337;BME280;46978;50.288;28.624;2023-02-19T01:36:15;98016.20;;;1.41;94.58
60337;BME280;46978;50.288;28.624;2023-02-19T01:37:17;98019.61;;;1.37;94.58
60337;BME280;46978;50.288;28.624;2023-02-19T01:38:18;98025.56;;;1.35;95.40
60337;BME280;46978;50.288;28.624;2023-02-19T01:39:20;98020.50;;;1.32;95.30
60337;BME280;46978;50.288;28.624;2023-02-19T01:40:23;98023.90;;;1.29;95.79
60337;BME280;46978;50.288;28.624;2023-02-19T01:41:25;98018.79;;;1.28;95.80
60337;BME280;46978;50.288;28.624;2023-02-19T01:42:27;98025.63;;;1.24;95.45
60337;BME280;46978;50.288;28.624;2023-02-19T01:43:30;98029.03;;;1.20;95.72
60337;BME280;46978;50.288;28.624;2023-02-19T01:45:38;98023.92;;;1.17;96.35
60337;BME280;46978;50.288;28.624;2023-02-19T01:46:43;98034.98;;;1.16;96.74
60337;BME280;46978;50.288;28.624;2023-02-19T01:47:47;98036.70;;;1.14;96.66
60337;BME280;46978;50.288;28.624;2023-02-19T01:48:50;98031.59;;;1.12;96.65
60337;BME280;46978;50.288;28.624;2023-02-19T01:49:54;98031.59;;;1.12;96.65
60337;BME280;46978;50.288;28.624;2023-02-19T01:51:08;98033.31;;;1.13;96.32
60337;BME280;46978;50.288;28.624;2023-02-19T01:52:22;98039.27;;;1.12;96.66
60337;BME280;46978;50.288;28.624;2023-02-19T01:53:26;98044.38;;;1.12;96.56
60337;BME280;46978;50.288;28.624;2023-02-19T01:54:31;98054.59;;;1.12;96.50
60337;BME280;46978;50.288;28.624;2023-02-19T01:55:34;98062.26;;;1.11;96.70
60337;BME280;46978;50.288;28.624;2023-02-19T01:56:38;98048.64;;;1.13;97.00
60337;BME280;46978;50.288;28.624;2023-02-19T01:57:44;98049.48;;;1.14;96.77
60337;BME280;46978;50.288;28.624;2023-02-19T01:58:46;98051.20;;;1.13;96.90
60337;BME280;46978;50.288;28.624;2023-02-19T01:59:50;98048.64;;;1.12;96.80
60337;BME280;46978;50.288;28.624;2023-02-19T02:00:53;98053.75;;;1.10;96.73
60337;BME280;46978;50.288;28.624;2023-02-19T02:01:55;98049.49;;;1.06;96.37
60337;BME280;46978;50.288;28.624;2023-02-19T02:02:57;98043.55;;;1.02;96.66
60337;BME280;46978;50.288;28.624;2023-02-19T02:03:59;98037.56;;;1.00;96.73
60337;BME280;46978;50.288;28.624;2023-02-19T02:05:02;98035.89;;;0.95;96.98
60337;BME280;46978;50.288;28.624;2023-02-19T02:06:17;98043.55;;;0.92;97.51
60337;BME280;46978;50.288;28.624;2023-02-19T02:07:18;98039.29;;;0.87;97.45
60337;BME280;46978;50.288;28.624;2023-02-19T02:08:20;98035.03;;;0.83;97.61
60337;BME280;46978;50.288;28.624;2023-02-19T02:09:28;98039.30;;;0.81;98.01
60337;BME280;46978;50.288;28.624;2023-02-19T02:10:27;98046.95;;;0.80;97.96
60337;BME280;46978;50.288;28.624;2023-02-19T02:11:29;98035.91;;;0.79;98.24
60337;BME280;46978;50.288;28.624;2023-02-19T02:12:31;98047.80;;;0.77;97.99
60337;BME280;46978;50.288;28.624;2023-02-19T02:13:33;98039.30;;;0.75;98.18
60337;BME280;46978;50.288;28.624;2023-02-19T02:14:38;98035.03;;;0.73;98.16
60337;BME280;46978;50.288;28.624;2023-02-19T02:15:51;98040.14;;;0.71;98.55
60337;BME280;46978;50.288;28.624;2023-02-19T02:18:27;98043.56;;;0.67;98.40
60337;BME280;46978;50.288;28.624;2023-02-19T02:23:45;98048.67;;;0.64;98.85
60337;BME280;46978;50.288;28.624;2023-02-19T02:25:08;98056.33;;;0.65;98.67
60337;BME280;46978;50.288;28.624;2023-02-19T02:26:21;98058.88;;;0.65;98.50
60337;BME280;46978;50.288;28.624;2023-02-19T02:31:38;98057.17;;;0.67;98.57
60337;BME280;46978;50.288;28.624;2023-02-19T02:35:08;98068.22;;;0.71;98.40
60337;BME280;46978;50.288;28.624;2023-02-19T02:36:26;98063.11;;;0.71;98.35
60337;BME280;46978;50.288;28.624;2023-02-19T02:37:27;98060.56;;;0.71;98.38
60337;BME280;46978;50.288;28.624;2023-02-19T02:38:32;98061.44;;;0.71;98.44
60337;BME280;46978;50.288;28.624;2023-02-19T02:39:36;98074.20;;;0.73;98.49
60337;BME280;46978;50.288;28.624;2023-02-19T02:40:41;98063.12;;;0.74;98.34
60337;BME280;46978;50.288;28.624;2023-02-19T02:41:49;98062.27;;;0.75;98.30
60337;BME280;46978;50.288;28.624;2023-02-19T02:42:51;98049.52;;;0.75;98.21
60337;BME280;46978;50.288;28.624;2023-02-19T02:43:52;98065.67;;;0.76;98.23
60337;BME280;46978;50.288;28.624;2023-02-19T02:44:56;98048.67;;;0.75;98.14
60337;BME280;46978;50.288;28.624;2023-02-19T02:45:58;98069.09;;;0.73;97.98
60337;BME280;46978;50.288;28.624;2023-02-19T02:47:02;98058.88;;;0.73;98.07
60337;BME280;46978;50.288;28.624;2023-02-19T02:48:31;98066.54;;;0.73;97.92
60337;BME280;46978;50.288;28.624;2023-02-19T02:49:32;98064.83;;;0.72;98.20
60337;BME280;46978;50.288;28.624;2023-02-19T02:51:46;98063.98;;;0.70;97.95
60337;BME280;46978;50.288;28.624;2023-02-19T02:52:51;98067.38;;;0.69;98.06
60337;BME280;46978;50.288;28.624;2023-02-19T02:53:56;98068.22;;;0.68;97.96
60337;BME280;46978;50.288;28.624;2023-02-19T02:54:58;98077.59;;;0.66;97.92
60337;BME280;46978;50.288;28.624;2023-02-19T02:56:00;98079.30;;;0.64;97.78
60337;BME280;46978;50.288;28.624;2023-02-19T02:57:05;98081.85;;;0.62;97.79
60337;BME280;46978;50.288;28.624;2023-02-19T02:58:08;98086.08;;;0.59;97.76
60337;BME280;46978;50.288;28.624;2023-02-19T02:59:13;98080.13;;;0.57;98.04
60337;BME280;46978;50.288;28.624;2023-02-19T03:00:15;98086.95;;;0.55;98.35
60337;BME280;46978;50.288;28.624;2023-02-19T03:01:24;98092.89;;;0.53;98.48
60337;BME280;46978;50.288;28.624;2023-02-19T03:02:28;98098.83;;;0.52;98.59
60337;BME280;46978;50.288;28.624;2023-02-19T03:03:32;98102.26;;;0.51;98.37
60337;BME280;46978;50.288;28.624;2023-02-19T03:06:02;98114.14;;;0.51;98.81
60337;BME280;46978;50.288;28.624;2023-02-19T03:07:06;98121.80;;;0.52;98.70
60337;BME280;46978;50.288;28.624;2023-02-19T03:08:15;98116.70;;;0.52;98.62
60337;BME280;46978;50.288;28.624;2023-02-19T03:09:24;98115.02;;;0.51;98.35
60337;BME280;46978;50.288;28.624;2023-02-19T03:10:33;98109.05;;;0.51;98.38
60337;BME280;46978;50.288;28.624;2023-02-19T03:11:33;98098.83;;;0.51;98.36
60337;BME280;46978;50.288;28.624;2023-02-19T03:12:38;98092.89;;;0.50;98.51
60337;BME280;46978;50.288;28.624;2023-02-19T03:13:40;98092.05;;;0.50;98.41
60337;BME280;46978;50.288;28.624;2023-02-19T03:14:47;98080.96;;;0.49;98.61
60337;BME280;46978;50.288;28.624;2023-02-19T03:15:56;98076.73;;;0.47;98.57
60337;BME280;46978;50.288;28.624;2023-02-19T03:17:01;98084.38;;;0.45;98.49
60337;BME280;46978;50.288;28.624;2023-02-19T03:18:05;98074.17;;;0.42;98.59
60337;BME280;46978;50.288;28.624;2023-02-19T03:19:11;98076.72;;;0.41;98.54
60337;BME280;46978;50.288;28.624;2023-02-19T03:20:16;98097.13;;;0.41;98.76
60337;BME280;46978;50.288;28.624;2023-02-19T03:21:21;98091.16;;;0.39;98.70
60337;BME280;46978;50.288;28.624;2023-02-19T03:22:29;98097.96;;;0.37;98.68
60337;BME280;46978;50.288;28.624;2023-02-19T03:23:32;98087.75;;;0.35;98.80
60337;BME280;46978;50.288;28.624;2023-02-19T03:24:38;98092.02;;;0.33;98.77
60337;BME280;46978;50.288;28.624;2023-02-19T03:25:40;98092.01;;;0.31;98.72
60337;BME280;46978;50.288;28.624;2023-02-19T03:26:44;98099.66;;;0.30;99.05
60337;BME280;46978;50.288;28.624;2023-02-19T03:27:48;98098.78;;;0.28;99.01
60337;BME280;46978;50.288;28.624;2023-02-19T03:28:52;98099.66;;;0.27;99.07
60337;BME280;46978;50.288;28.624;2023-02-19T03:29:56;98099.66;;;0.27;99.26
60337;BME280;46978;50.288;28.624;2023-02-19T03:30:59;98103.03;;;0.24;99.41
60337;BME280;46978;50.288;28.624;2023-02-19T03:32:05;98098.77;;;0.23;99.50
60337;BME280;46978;50.288;28.624;2023-02-19T03:33:15;98096.21;;;0.22;99.45
60337;BME280;46978;50.288;28.624;2023-02-19T03:34:21;98095.37;;;0.21;99.54
60337;BME280;46978;50.288;28.624;2023-02-19T03:35:29;98111.51;;;0.18;99.71
60337;BME280;46978;50.288;28.624;2023-02-19T03:36:45;98093.64;;;0.15;99.64
60337;BME280;46978;50.288;28.624;2023-02-19T03:37:45;98103.84;;;0.12;99.75
60337;BME280;46978;50.288;28.624;2023-02-19T03:38:55;98095.34;;;0.09;99.89
60337;BME280;46978;50.288;28.624;2023-02-19T03:39:56;98097.03;;;0.04;99.80
60337;BME280;46978;50.288;28.624;2023-02-19T03:43:56;98115.66;;;-0.10;100.00
60337;BME280;46978;50.288;28.624;2023-02-19T03:46:13;98111.41;;;-0.15;100.00
60337;BME280;46978;50.288;28.624;2023-02-19T03:48:35;98124.14;;;-0.20;100.00
60337;BME280;46978;50.288;28.624;2023-02-19T03:49:48;98116.47;;;-0.25;100.00
60337;BME280;46978;50.288;28.624;2023-02-19T03:52:22;98120.67;;;-0.30;100.00
60337;BME280;46978;50.288;28.624;2023-02-19T03:53:32;98124.90;;;-0.35;100.00
60337;BME280;46978;50.288;28.624;2023-02-19T03:54:47;98118.09;;;-0.36;100.00
60337;BME280;46978;50.288;28.624;2023-02-19T03:55:56;98121.50;;;-0.37;100.00
60337;BME280;46978;50.288;28.624;2023-02-19T03:57:00;98125.72;;;-0.39;100.00
60337;BME280;46978;50.288;28.624;2023-02-19T03:58:05;98124.03;;;-0.40;100.00
60337;BME280;46978;50.288;28.624;2023-02-19T04:01:48;98136.73;;;-0.48;100.00
60337;BME280;46978;50.288;28.624;2023-02-19T04:02:42;98135.00;;;-0.50;100.00
60337;BME280;46978;50.288;28.624;2023-02-19T04:03:59;98137.54;;;-0.52;100.00
60337;BME280;46978;50.288;28.624;2023-02-19T04:05:38;98136.69;;;-0.54;100.00
60337;BME280;46978;50.288;28.624;2023-02-19T04:06:23;98140.89;;;-0.58;100.00
60337;BME280;46978;50.288;28.624;2023-02-19T04:07:27;98136.66;;;-0.59;100.00
60337;BME280;46978;50.288;28.624;2023-02-19T04:08:32;98136.66;;;-0.59;100.00
60337;BME280;46978;50.288;28.624;2023-02-19T04:09:40;98138.33;;;-0.61;100.00
60337;BME280;46978;50.288;28.624;2023-02-19T04:10:42;98145.13;;;-0.60;100.00
60337;BME280;46978;50.288;28.624;2023-02-19T04:11:46;98148.52;;;-0.61;100.00
60337;BME280;46978;50.288;28.624;2023-02-19T04:13:12;98152.77;;;-0.61;100.00
60337;BME280;46978;50.288;28.624;2023-02-19T04:14:09;98151.92;;;-0.62;100.00
60337;BME280;46978;50.288;28.624;2023-02-19T04:15:15;98151.06;;;-0.61;100.00
60337;BME280;46978;50.288;28.624;2023-02-19T04:16:20;98148.52;;;-0.61;100.00
60337;BME280;46978;50.288;28.624;2023-02-19T04:17:33;98142.56;;;-0.63;100.00
60337;BME280;46978;50.288;28.624;2023-02-19T04:18:37;98140.02;;;-0.63;100.00
60337;BME280;46978;50.288;28.624;2023-02-19T04:19:40;98145.95;;;-0.62;100.00
60337;BME280;46978;50.288;28.624;2023-02-19T04:20:44;98141.72;;;-0.63;100.00
60337;BME280;46978;50.288;28.624;2023-02-19T04:21:48;98141.71;;;-0.65;100.00
60337;BME280;46978;50.288;28.624;2023-02-19T04:22:51;98144.25;;;-0.66;100.00
60337;BME280;46978;50.288;28.624;2023-02-19T04:23:55;98151.89;;;-0.66;100.00
60337;BME280;46978;50.288;28.624;2023-02-19T04:24:58;98148.47;;;-0.67;100.00
60337;BME280;46978;50.288;28.624;2023-02-19T04:26:02;98149.32;;;-0.69;100.00
60337;BME280;46978;50.288;28.624;2023-02-19T04:27:04;98155.25;;;-0.70;100.00
60337;BME280;46978;50.288;28.624;2023-02-19T04:28:07;98158.61;;;-0.73;100.00
60337;BME280;46978;50.288;28.624;2023-02-19T04:29:10;98158.60;;;-0.75;100.00
60337;BME280;46978;50.288;28.624;2023-02-19T04:30:13;98158.56;;;-0.79;100.00
60337;BME280;46978;50.288;28.624;2023-02-19T04:31:15;98158.56;;;-0.79;100.00
60337;BME280;46978;50.288;28.624;2023-02-19T04:32:18;98170.47;;;-0.78;100.00
60337;BME280;46978;50.288;28.624;2023-02-19T04:33:20;98164.52;;;-0.80;100.00
60337;BME280;46978;50.288;28.624;2023-02-19T04:34:22;98169.62;;;-0.80;100.00
60337;BME280;46978;50.288;28.624;2023-02-19T04:35:24;98172.19;;;-0.77;100.00
60337;BME280;46978;50.288;28.624;2023-02-19T04:36:26;98167.11;;;-0.76;100.00
60337;BME280;46978;50.288;28.624;2023-02-19T04:37:28;98170.50;;;-0.75;100.00
60337;BME280;46978;50.288;28.624;2023-02-19T04:38:30;98164.58;;;-0.73;100.00
60337;BME280;46978;50.288;28.624;2023-02-19T04:39:32;98160.33;;;-0.72;100.00
60337;BME280;46978;50.288;28.624;2023-02-19T04:40:33;98166.29;;;-0.68;100.00
60337;BME280;46978;50.288;28.624;2023-02-19T04:41:35;98168.02;;;-0.66;100.00
60337;BME280;46978;50.288;28.624;2023-02-19T04:42:37;98166.33;;;-0.64;100.00
60337;BME280;46978;50.288;28.624;2023-02-19T04:43:38;98167.21;;;-0.62;100.00
60337;BME280;46978;50.288;28.624;2023-02-19T04:44:40;98165.50;;;-0.61;100.00
60337;BME280;46978;50.288;28.624;2023-02-19T04:45:42;98161.27;;;-0.59;100.00
60337;BME280;46978;50.288;28.624;2023-02-19T04:46:44;98165.52;;;-0.58;100.00
60337;BME280;46978;50.288;28.624;2023-02-19T04:47:45;98167.25;;;-0.56;100.00
60337;BME280;46978;50.288;28.624;2023-02-19T04:48:47;98161.30;;;-0.55;100.00
60337;BME280;46978;50.288;28.624;2023-02-19T04:49:48;98164.73;;;-0.52;100.00
60337;BME280;46978;50.288;28.624;2023-02-19T04:50:51;98158.77;;;-0.51;100.00
60337;BME280;46978;50.288;28.624;2023-02-19T04:51:52;98154.55;;;-0.49;100.00
60337;BME280;46978;50.288;28.624;2023-02-19T04:52:54;98160.50;;;-0.47;100.00
60337;BME280;46978;50.288;28.624;2023-02-19T04:53:56;98162.22;;;-0.46;100.00
60337;BME280;46978;50.288;28.624;2023-02-19T04:54:59;98170.72;;;-0.44;100.00
60337;BME280;46978;50.288;28.624;2023-02-19T04:56:10;98175.83;;;-0.43;100.00
60337;BME280;46978;50.288;28.624;2023-02-19T04:57:12;98169.89;;;-0.42;100.00
60337;BME280;46978;50.288;28.624;2023-02-19T04:58:16;98167.36;;;-0.40;100.00
60337;BME280;46978;50.288;28.624;2023-02-19T04:59:17;98174.13;;;-0.41;100.00
60337;BME280;46978;50.288;28.624;2023-02-19T05:00:19;98177.55;;;-0.40;100.00
60337;BME280;46978;50.288;28.624;2023-02-19T05:01:21;98174.14;;;-0.39;100.00
60337;BME280;46978;50.288;28.624;2023-02-19T05:02:23;98180.95;;;-0.38;100.00
60337;BME280;46978;50.288;28.624;2023-02-19T05:03:25;98176.70;;;-0.38;100.00
60337;BME280;46978;50.288;28.624;2023-02-19T05:04:26;98186.06;;;-0.37;100.00
60337;BME280;46978;50.288;28.624;2023-02-19T05:05:28;98184.35;;;-0.36;100.00
60337;BME280;46978;50.288;28.624;2023-02-19T05:06:30;98190.33;;;-0.35;100.00
60337;BME280;46978;50.288;28.624;2023-02-19T05:07:32;98188.63;;;-0.33;100.00
60337;BME280;46978;50.288;28.624;2023-02-19T05:08:34;98196.28;;;-0.32;100.00
60337;BME280;46978;50.288;28.624;2023-02-19T05:09:36;98197.13;;;-0.31;100.00
60337;BME280;46978;50.288;28.624;2023-02-19T05:10:38;98196.28;;;-0.32;100.00
60337;BME280;46978;50.288;28.624;2023-02-19T05:11:39;98196.28;;;-0.32;100.00
60337;BME280;46978;50.288;28.624;2023-02-19T05:12:41;98197.13;;;-0.31;100.00
60337;BME280;46978;50.288;28.624;2023-02-19T05:13:42;98203.09;;;-0.31;100.00
60337;BME280;46978;50.288;28.624;2023-02-19T05:14:44;98203.11;;;-0.29;100.00
60337;BME280;46978;50.288;28.624;2023-02-19T05:15:58;98205.67;;;-0.28;100.00
60337;BME280;46978;50.288;28.624;2023-02-19T05:17:00;98212.45;;;-0.27;100.00
60337;BME280;46978;50.288;28.624;2023-02-19T05:18:02;98214.17;;;-0.26;100.00
60337;BME280;46978;50.288;28.624;2023-02-19T05:19:04;98220.13;;;-0.24;100.00
60337;BME280;46978;50.288;28.624;2023-02-19T05:20:07;98216.73;;;-0.23;100.00
60337;BME280;46978;50.288;28.624;2023-02-19T05:21:09;98213.36;;;-0.22;100.00
60337;BME280;46978;50.288;28.624;2023-02-19T05:22:11;98217.60;;;-0.19;100.00
60337;BME280;46978;50.288;28.624;2023-02-19T05:23:13;98215.92;;;-0.19;100.00
60337;BME280;46978;50.288;28.624;2023-02-19T05:24:14;98215.06;;;-0.17;100.00
60337;BME280;46978;50.288;28.624;2023-02-19T05:25:16;98218.49;;;-0.15;100.00
60337;BME280;46978;50.288;28.624;2023-02-19T05:26:21;98219.34;;;-0.13;100.00
60337;BME280;46978;50.288;28.624;2023-02-19T05:27:23;98219.36;;;-0.10;100.00
60337;BME280;46978;50.288;28.624;2023-02-19T05:28:25;98218.53;;;-0.09;100.00
60337;BME280;46978;50.288;28.624;2023-02-19T05:29:26;98227.88;;;-0.07;100.00
60337;BME280;46978;50.288;28.624;2023-02-19T05:30:28;98227.05;;;-0.04;100.00
60337;BME280;46978;50.288;28.624;2023-02-19T05:31:30;98223.69;;;0.00;100.00
60337;BME280;46978;50.288;28.624;2023-02-19T05:32:34;98224.53;;;0.01;100.00
60337;BME280;46978;50.288;28.624;2023-02-19T05:33:36;98226.21;;;0.02;100.00
60337;BME280;46978;50.288;28.624;2023-02-19T05:34:37;98224.55;;;0.04;100.00
60337;BME280;46978;50.288;28.624;2023-02-19T05:35:47;98227.95;;;0.06;100.00
60337;BME280;46978;50.288;28.624;2023-02-19T05:36:49;98223.70;;;0.08;100.00
60337;BME280;46978;50.288;28.624;2023-02-19T05:37:51;98226.25;;;0.08;100.00
60337;BME280;46978;50.288;28.624;2023-02-19T05:38:54;98216.92;;;0.10;100.00
60337;BME280;46978;50.288;28.624;2023-02-19T05:39:56;98224.58;;;0.10;100.00
60337;BME280;46978;50.288;28.624;2023-02-19T05:41:09;98231.38;;;0.12;100.00
60337;BME280;46978;50.288;28.624;2023-02-19T05:42:13;98227.98;;;0.13;100.00
60337;BME280;46978;50.288;28.624;2023-02-19T05:43:15;98234.81;;;0.16;100.00
60337;BME280;46978;50.288;28.624;2023-02-19T05:44:17;98231.39;;;0.15;100.00
60337;BME280;46978;50.288;28.624;2023-02-19T05:45:18;98236.50;;;0.17;100.00
60337;BME280;46978;50.288;28.624;2023-02-19T05:46:24;98233.95;;;0.18;100.00
60337;BME280;46978;50.288;28.624;2023-02-19T05:47:26;98234.83;;;0.19;100.00
60337;BME280;46978;50.288;28.624;2023-02-19T05:48:28;98234.84;;;0.21;100.00
60337;BME280;46978;50.288;28.624;2023-02-19T05:49:29;98233.97;;;0.22;100.00
60337;BME280;46978;50.288;28.624;2023-02-19T05:50:32;98239.08;;;0.23;100.00
60337;BME280;46978;50.288;28.624;2023-02-19T05:51:34;98242.52;;;0.25;100.00
60337;BME280;46978;50.288;28.624;2023-02-19T05:52:36;98242.52;;;0.25;100.00
60337;BME280;46978;50.288;28.624;2023-02-19T05:53:39;98245.06;;;0.25;99.71
60337;BME280;46978;50.288;28.624;2023-02-19T05:54:41;98237.42;;;0.27;99.75
60337;BME280;46978;50.288;28.624;2023-02-19T05:55:42;98230.61;;;0.27;99.61
60337;BME280;46978;50.288;28.624;2023-02-19T05:56:44;98239.11;;;0.29;99.51
60337;BME280;46978;50.288;28.624;2023-02-19T05:57:47;98234.88;;;0.30;99.42
60337;BME280;46978;50.288;28.624;2023-02-19T05:58:49;98235.73;;;0.30;99.42
60337;BME280;46978;50.288;28.624;2023-02-19T05:59:51;98234.88;;;0.30;99.22